Time;durP1;ratioP1;P1;durP2;ratioP2;P2;SDS_P1;SDS_P2;PMS_P1;PMS_P2;Temp;Humidity;BMP_temperature;BMP_pressure;BME280_temperature;BME280_humidity;BME280_pressure;Samples;Min_cycle;Max_cycle;Signal;HPM_P1;HPM_P2
2022/01/29 00:02:19;;;;;;;;;14.75;10.00;;;;;7.60;97.64;102660.34;5059816;28;10950;-72
2022/01/29 00:04:46;;;;;;;;;14.25;12.75;;;;;7.62;97.75;102657.53;5046160;28;10833;-72
2022/01/29 00:07:14;;;;;;;;;8.00;8.00;;;;;7.63;98.07;102640.38;5058747;28;11034;-71
2022/01/29 00:09:43;;;;;;;;;14.50;11.00;;;;;7.57;98.33;102627.41;5039701;28;10783;-71
2022/01/29 00:12:10;;;;;;;;;11.75;11.75;;;;;7.57;99.12;102636.34;5047408;28;10719;-71
2022/01/29 00:14:37;;;;;;;;;11.00;10.50;;;;;7.58;99.63;102640.75;5055834;28;10694;-72
2022/01/29 00:17:03;;;;;;;;;15.25;13.00;;;;;7.56;99.77;102629.25;5042623;28;10691;-72
2022/01/29 00:19:30;;;;;;;;;12.00;11.50;;;;;7.55;99.98;102632.06;5063271;28;10649;-70
2022/01/29 00:21:58;;;;;;;;;12.00;8.50;;;;;7.51;100.00;102626.09;5062108;28;10619;-71
2022/01/29 00:24:25;;;;;;;;;14.00;11.50;;;;;7.51;100.00;102614.44;5062436;28;10833;-71
2022/01/29 00:26:52;;;;;;;;;13.00;12.00;;;;;7.53;100.00;102612.47;5060734;28;10666;-72
2022/01/29 00:29:21;;;;;;;;;8.00;8.00;;;;;7.53;100.00;102605.25;5062071;28;10824;-70
2022/01/29 00:31:48;;;;;;;;;18.00;14.00;;;;;7.53;100.00;102615.19;5046106;28;10675;-71
2022/01/29 00:34:14;;;;;;;;;15.75;8.00;;;;;7.56;100.00;102617.63;5054710;28;10886;-71
2022/01/29 00:36:41;;;;;;;;;12.75;12.50;;;;;7.53;100.00;102610.63;5051237;28;10539;-71
2022/01/29 00:39:08;;;;;;;;;13.00;11.50;;;;;7.58;100.00;102611.13;5062607;28;10771;-72
2022/01/29 00:41:34;;;;;;;;;11.00;9.00;;;;;7.60;100.00;102606.44;5060988;28;11566;-72
2022/01/29 00:44:01;;;;;;;;;14.75;13.25;;;;;7.60;100.00;102603.75;5049551;28;11423;-70
2022/01/29 00:46:27;;;;;;;;;15.75;15.75;;;;;7.59;100.00;102602.03;5042695;28;10855;-71
2022/01/29 00:48:54;;;;;;;;;10.00;9.25;;;;;7.62;99.97;102603.63;5062240;28;11027;-72
2022/01/29 00:51:21;;;;;;;;;15.25;11.50;;;;;7.65;100.00;102597.97;5061486;28;10759;-72
2022/01/29 00:53:47;;;;;;;;;15.75;13.00;;;;;7.64;99.98;102596.28;5039933;28;10702;-71
2022/01/29 00:56:14;;;;;;;;;12.75;11.75;;;;;7.63;100.00;102600.81;5060609;28;10875;-71
2022/01/29 00:58:40;;;;;;;;;12.00;9.00;;;;;7.66;100.00;102586.22;5060525;28;10866;-71
2022/01/29 01:01:07;;;;;;;;;12.75;12.75;;;;;7.67;100.00;102596.88;5050091;28;11059;-72
2022/01/29 01:03:34;;;;;;;;;16.50;12.75;;;;;7.68;100.00;102581.53;5042807;28;10940;-71
2022/01/29 01:06:00;;;;;;;;;14.75;13.00;;;;;7.66;100.00;102581.69;5051488;28;10970;-70
2022/01/29 01:08:26;;;;;;;;;11.50;11.00;;;;;7.67;100.00;102583.38;5043961;28;11705;-69
2022/01/29 01:10:53;;;;;;;;;6.00;6.00;;;;;7.68;100.00;102571.66;5060305;28;11025;-73
2022/01/29 01:13:19;;;;;;;;;11.50;8.50;;;;;7.66;100.00;102568.19;5060948;28;10718;-70
2022/01/29 01:15:46;;;;;;;;;7.25;7.25;;;;;7.69;100.00;102559.88;5049403;28;10707;-71
2022/01/29 01:18:12;;;;;;;;;10.50;9.00;;;;;7.68;100.00;102565.38;5049314;28;10542;-72
2022/01/29 01:20:39;;;;;;;;;13.25;8.00;;;;;7.68;100.00;102563.56;5048844;28;10905;-69
2022/01/29 01:23:06;;;;;;;;;8.00;8.00;;;;;7.69;100.00;102556.34;5063142;28;10777;-71
2022/01/29 01:25:32;;;;;;;;;14.75;10.75;;;;;7.65;100.00;102550.31;5061519;28;10610;-70
2022/01/29 01:27:58;;;;;;;;;16.25;12.75;;;;;7.63;100.00;102533.41;5032567;28;10591;-71
2022/01/29 01:30:25;;;;;;;;;14.00;12.25;;;;;7.62;100.00;102550.56;5048281;28;10986;-72
2022/01/29 01:32:52;;;;;;;;;12.00;12.00;;;;;7.64;100.00;102548.59;5059988;28;10937;-72
2022/01/29 01:35:27;;;;;;;;;14.75;12.50;;;;;7.63;100.00;102543.34;5042408;28;10789;-72
2022/01/29 01:37:59;;;;;;;;;14.50;13.50;;;;;7.62;100.00;102544.31;5060676;28;10783;-71
2022/01/29 01:40:27;;;;;;;;;16.00;13.00;;;;;7.62;100.00;102545.19;5027911;28;10728;-72
2022/01/29 01:42:59;;;;;;;;;19.00;15.75;;;;;7.64;100.00;102539.66;5050300;28;10715;-71
2022/01/29 01:45:29;;;;;;;;;16.50;14.50;;;;;7.64;100.00;102537.81;5048845;28;10913;-72
2022/01/29 01:47:57;;;;;;;;;14.00;12.25;;;;;7.63;100.00;102530.72;5059852;28;11003;-72
2022/01/29 01:50:24;;;;;;;;;17.25;14.00;;;;;7.67;100.00;102534.00;5060682;28;10883;-71
2022/01/29 01:52:51;;;;;;;;;18.00;14.50;;;;;7.68;100.00;102523.13;5059074;28;10884;-71
2022/01/29 01:55:18;;;;;;;;;16.50;13.25;;;;;7.69;100.00;102521.28;5061082;28;11003;-71
2022/01/29 01:57:45;;;;;;;;;18.75;17.75;;;;;7.68;100.00;102511.47;5059088;28;10779;-71
2022/01/29 02:00:12;;;;;;;;;14.50;13.75;;;;;7.68;100.00;102501.56;5060477;28;11140;-71
2022/01/29 02:02:38;;;;;;;;;18.25;16.00;;;;;7.71;100.00;102511.22;5045954;28;10922;-73
2022/01/29 02:05:07;;;;;;;;;22.00;21.00;;;;;7.71;100.00;102506.69;5060655;28;10972;-73
2022/01/29 02:07:34;;;;;;;;;18.75;15.50;;;;;7.72;100.00;102504.84;5057687;28;11207;-71
2022/01/29 02:10:01;;;;;;;;;15.00;15.00;;;;;7.75;100.00;102501.03;5046232;28;11071;-71
2022/01/29 02:12:31;;;;;;;;;24.00;20.00;;;;;7.76;100.00;102490.13;5058896;28;11957;-70
2022/01/29 02:15:02;;;;;;;;;24.75;17.25;;;;;7.77;100.00;102490.97;5058146;28;11143;-71
2022/01/29 02:17:29;;;;;;;;;21.75;18.50;;;;;7.78;100.00;102481.91;5059047;28;11049;-72
2022/01/29 02:19:55;;;;;;;;;15.25;15.25;;;;;7.79;100.00;102467.44;5048528;28;11153;-71
2022/01/29 02:22:21;;;;;;;;;19.75;14.00;;;;;7.80;100.00;102467.31;5042119;28;11772;-71
2022/01/29 02:24:48;;;;;;;;;23.00;14.50;;;;;7.82;100.00;102469.88;5060090;28;10802;-71
2022/01/29 02:27:14;;;;;;;;;16.00;15.00;;;;;7.83;100.00;102456.25;5058374;28;10888;-70
2022/01/29 02:29:43;;;;;;;;;21.50;19.00;;;;;7.85;100.00;102458.81;5058061;28;11662;-71
2022/01/29 02:32:09;;;;;;;;;15.00;15.00;;;;;7.86;100.00;102450.59;5047776;28;12033;-71
2022/01/29 02:34:36;;;;;;;;;21.50;12.50;;;;;7.88;100.00;102445.91;5057511;28;10860;-71
2022/01/29 02:37:03;;;;;;;;;14.00;13.00;;;;;7.87;100.00;102446.06;5059644;28;10939;-71
2022/01/29 02:39:29;;;;;;;;;17.75;15.25;;;;;7.91;100.00;102445.66;5045428;28;10825;-72
2022/01/29 02:41:57;;;;;;;;;16.25;15.00;;;;;7.91;100.00;102440.25;5059047;28;11021;-71
2022/01/29 02:44:24;;;;;;;;;19.50;17.50;;;;;7.92;100.00;102433.03;5046849;28;10778;-71
2022/01/29 02:46:53;;;;;;;;;14.25;14.00;;;;;7.92;100.00;102427.63;5059461;28;10943;-70
2022/01/29 02:49:25;;;;;;;;;15.00;15.00;;;;;7.94;100.00;102428.38;5047900;28;10966;-71
2022/01/29 02:51:54;;;;;;;;;17.00;16.50;;;;;7.95;100.00;102422.84;5058444;28;10693;-71
2022/01/29 02:54:23;;;;;;;;;17.50;14.50;;;;;7.97;100.00;102411.94;5041881;28;10890;-71
2022/01/29 02:56:49;;;;;;;;;16.25;15.00;;;;;7.94;100.00;102413.06;5042929;28;10802;-72
2022/01/29 02:59:16;;;;;;;;;14.00;13.00;;;;;7.95;100.00;102400.44;5058060;28;11684;-71
2022/01/29 03:01:43;;;;;;;;;17.50;12.25;;;;;7.94;100.00;102402.28;5056489;28;10792;-71
2022/01/29 03:04:10;;;;;;;;;18.00;16.75;;;;;7.96;100.00;102402.13;5058425;28;10790;-71
2022/01/29 03:06:36;;;;;;;;;19.25;14.25;;;;;7.95;100.00;102392.34;5056596;28;10876;-71
2022/01/29 03:09:05;;;;;;;;;10.00;8.00;;;;;7.98;100.00;102390.22;5055105;28;10817;-70
2022/01/29 03:11:32;;;;;;;;;12.00;11.25;;;;;7.98;100.00;102392.91;5060176;28;10630;-71
2022/01/29 03:13:59;;;;;;;;;11.00;10.50;;;;;7.99;100.00;102391.06;5053046;28;10784;-71
2022/01/29 03:16:25;;;;;;;;;14.75;10.75;;;;;8.02;100.00;102388.09;5057338;28;10803;-71
2022/01/29 03:18:52;;;;;;;;;11.50;11.00;;;;;8.00;100.00;102390.09;5056405;28;10569;-72
2022/01/29 03:21:19;;;;;;;;;16.00;15.25;;;;;8.02;100.00;102382.72;5024547;28;10643;-71
2022/01/29 03:23:45;;;;;;;;;14.25;14.25;;;;;8.00;100.00;102377.44;5055955;28;10869;-70
2022/01/29 03:26:11;;;;;;;;;14.50;10.25;;;;;8.03;100.00;102374.47;5057523;28;10852;-71
2022/01/29 03:28:38;;;;;;;;;11.50;11.50;;;;;8.05;100.00;102376.19;5047518;28;10648;-71
2022/01/29 03:31:05;;;;;;;;;12.25;12.25;;;;;8.06;100.00;102383.28;5039377;28;10764;-71
2022/01/29 03:33:31;;;;;;;;;15.00;13.00;;;;;8.08;100.00;102375.91;5058192;28;10736;-70
2022/01/29 03:35:58;;;;;;;;;14.00;11.00;;;;;8.06;100.00;102370.66;5056813;28;10723;-71
2022/01/29 03:38:24;;;;;;;;;17.00;12.50;;;;;8.05;100.00;102370.78;5058868;28;10763;-71
2022/01/29 03:40:52;;;;;;;;;13.00;11.00;;;;;8.07;100.00;102382.31;5055880;28;10956;-71
2022/01/29 03:43:32;;;;;;;;;13.50;12.50;;;;;8.06;100.00;102367.97;5045775;28;10871;-71
2022/01/29 03:45:59;;;;;;;;;19.00;17.75;;;;;8.08;100.00;102378.63;5059127;28;10933;-72
2022/01/29 03:48:26;;;;;;;;;20.50;14.00;;;;;8.10;100.00;102374.78;5029482;28;11760;-71
2022/01/29 03:50:52;;;;;;;;;13.75;10.00;;;;;8.13;100.00;102381.75;5056038;28;10978;-70
2022/01/29 03:53:19;;;;;;;;;10.75;9.00;;;;;8.15;100.00;102363.59;5037345;28;10702;-71
2022/01/29 03:55:45;;;;;;;;;13.25;9.00;;;;;8.18;100.00;102357.91;5058010;28;11402;-71
2022/01/29 03:58:12;;;;;;;;;14.25;14.25;;;;;8.17;100.00;102356.22;5057814;28;10931;-71
2022/01/29 04:00:38;;;;;;;;;8.50;8.50;;;;;8.17;100.00;102358.91;5057899;28;10899;-72
2022/01/29 04:03:05;;;;;;;;;9.50;9.00;;;;;8.19;100.00;102354.25;5056395;28;10681;-70
2022/01/29 04:05:31;;;;;;;;;11.50;9.00;;;;;8.19;100.00;102351.56;5046477;28;10797;-71
2022/01/29 04:07:58;;;;;;;;;13.75;12.00;;;;;8.22;100.00;102353.97;5047176;28;11485;-71
2022/01/29 04:10:27;;;;;;;;;12.25;10.25;;;;;8.22;100.00;102346.75;5054775;28;10750;-71
2022/01/29 04:12:54;;;;;;;;;13.00;12.50;;;;;8.22;100.00;102335.09;5058714;28;10781;-71
2022/01/29 04:15:21;;;;;;;;;10.50;10.50;;;;;8.24;100.00;102343.91;5047046;28;10755;-70
2022/01/29 04:17:48;;;;;;;;;10.00;10.00;;;;;8.22;100.00;102340.50;5045888;28;10527;-70
2022/01/29 04:20:15;;;;;;;;;11.75;11.75;;;;;8.24;100.00;102341.22;5055895;28;10758;-71
2022/01/29 04:22:42;;;;;;;;;12.25;12.25;;;;;8.25;100.00;102329.44;5046892;28;11808;-71
2022/01/29 04:25:09;;;;;;;;;15.50;9.25;;;;;8.27;100.00;102322.03;5046098;28;10871;-71
2022/01/29 04:27:40;;;;;;;;;12.00;11.00;;;;;8.25;100.00;102332.97;5055059;28;10668;-71
2022/01/29 04:30:13;;;;;;;;;18.25;15.25;;;;;8.26;100.00;102326.59;5056522;28;10616;-71
2022/01/29 04:35:15;;;;;;;;;12.25;11.25;;;;;8.27;100.00;102331.00;5057917;28;10473;-71
2022/01/29 04:37:41;;;;;;;;;14.25;12.00;;;;;8.29;100.00;102331.69;5039270;28;10662;-71
2022/01/29 04:40:09;;;;;;;;;14.75;14.00;;;;;8.29;100.00;102331.69;5041372;28;10544;-71
2022/01/29 04:42:35;;;;;;;;;11.00;8.00;;;;;8.29;100.00;102320.91;5046297;28;10703;-71
2022/01/29 04:45:02;;;;;;;;;13.75;10.50;;;;;8.29;100.00;102318.22;5056715;28;10663;-70
2022/01/29 04:47:29;;;;;;;;;12.75;11.00;;;;;8.30;100.00;102309.13;5057696;28;10457;-73
2022/01/29 04:49:55;;;;;;;;;14.00;11.50;;;;;8.30;100.00;102313.66;5058723;28;10616;-70
2022/01/29 04:52:22;;;;;;;;;16.00;11.50;;;;;8.30;100.00;102309.13;5056851;28;10483;-70
2022/01/29 04:54:48;;;;;;;;;8.00;6.00;;;;;8.30;100.00;102306.44;5039186;28;10548;-70
2022/01/29 04:57:15;;;;;;;;;12.75;12.75;;;;;8.30;100.00;102301.03;5056935;28;10547;-70
2022/01/29 04:59:41;;;;;;;;;13.50;10.25;;;;;8.28;100.00;102305.72;5046665;28;10824;-72
2022/01/29 05:02:08;;;;;;;;;16.50;12.75;;;;;8.31;100.00;102304.59;5056588;28;10342;-70
2022/01/29 05:04:34;;;;;;;;;11.25;9.50;;;;;8.31;100.00;102307.28;5048335;28;10444;-71
2022/01/29 05:07:01;;;;;;;;;11.50;8.25;;;;;8.30;100.00;102313.66;5061136;28;10432;-72
2022/01/29 05:09:27;;;;;;;;;11.50;9.75;;;;;8.31;100.00;102316.22;5050450;28;10724;-70
2022/01/29 05:11:55;;;;;;;;;16.25;12.00;;;;;8.32;100.00;102307.13;5049825;28;10418;-73
2022/01/29 05:27:56;;;;;;;;;11.00;11.00;;;;;8.18;100.00;102291.34;5060120;28;10528;-70
2022/01/29 05:30:23;;;;;;;;;14.75;11.50;;;;;8.16;100.00;102290.63;5045130;28;10542;-72
2022/01/29 05:32:49;;;;;;;;;9.00;8.00;;;;;8.17;100.00;102295.00;5048287;28;10638;-70
2022/01/29 05:35:16;;;;;;;;;13.25;5.00;;;;;8.13;100.00;102293.59;5040497;28;10422;-72
2022/01/29 05:37:42;;;;;;;;;13.75;12.00;;;;;8.14;100.00;102289.91;5040161;28;11220;-72
2022/01/29 05:40:09;;;;;;;;;7.00;7.00;;;;;8.14;100.00;102291.75;5060404;28;10569;-72
2022/01/29 05:42:35;;;;;;;;;9.25;6.75;;;;;8.17;100.00;102292.31;5059937;28;10637;-72
2022/01/29 05:45:03;;;;;;;;;8.00;7.25;;;;;8.20;100.00;102297.47;5051660;28;11458;-72
2022/01/29 05:47:29;;;;;;;;;12.25;7.75;;;;;8.21;100.00;102298.31;5057440;28;10418;-72
2022/01/29 05:49:57;;;;;;;;;5.75;5.75;;;;;8.23;100.00;102288.25;5061294;28;10387;-72
2022/01/29 05:52:24;;;;;;;;;7.25;6.50;;;;;8.26;100.00;102293.34;5058349;28;10375;-72
2022/01/29 05:54:51;;;;;;;;;6.25;5.25;;;;;8.28;100.00;102284.13;5059579;28;10239;-72
2022/01/29 05:57:17;;;;;;;;;5.50;5.50;;;;;8.32;100.00;102287.41;5058712;28;10451;-72
2022/01/29 05:59:44;;;;;;;;;7.25;7.25;;;;;8.33;100.00;102283.72;5049598;28;10150;-70
2022/01/29 06:02:11;;;;;;;;;8.00;8.00;;;;;8.34;100.00;102282.75;5060142;28;10462;-72
2022/01/29 06:04:37;;;;;;;;;8.50;8.00;;;;;8.39;100.00;102290.41;5048033;28;10489;-72
2022/01/29 06:07:04;;;;;;;;;8.75;6.75;;;;;8.38;100.00;102280.63;5060360;28;11160;-73
2022/01/29 06:09:30;;;;;;;;;7.50;6.00;;;;;8.41;100.00;102280.34;5046526;28;10468;-72
2022/01/29 06:11:56;;;;;;;;;8.75;6.75;;;;;8.41;100.00;102274.94;5041300;28;11246;-72
2022/01/29 06:14:23;;;;;;;;;5.50;5.50;;;;;8.42;100.00;102280.19;5056868;28;10315;-73
2022/01/29 06:16:49;;;;;;;;;8.25;7.75;;;;;8.43;100.00;102271.13;5058492;28;10497;-73
2022/01/29 06:19:16;;;;;;;;;6.50;5.50;;;;;8.46;100.00;102272.69;5048651;28;10500;-72
2022/01/29 06:21:42;;;;;;;;;7.50;7.50;;;;;8.46;100.00;102264.59;5058254;28;10264;-71
2022/01/29 06:24:09;;;;;;;;;8.50;7.25;;;;;8.45;100.00;102263.75;5058866;28;10323;-71
2022/01/29 06:26:35;;;;;;;;;9.50;8.50;;;;;8.48;100.00;102265.31;5059096;28;10355;-70
2022/01/29 06:29:02;;;;;;;;;10.00;9.00;;;;;8.51;100.00;102267.72;5058180;28;10351;-71
2022/01/29 06:31:28;;;;;;;;;7.75;3.75;;;;;8.48;100.00;102257.22;5059902;28;10262;-71
2022/01/29 06:33:55;;;;;;;;;7.75;6.75;;;;;8.50;100.00;102258.78;5047530;28;10369;-71
2022/01/29 06:36:21;;;;;;;;;8.00;7.25;;;;;8.51;100.00;102251.53;5046253;28;10688;-71
2022/01/29 06:38:48;;;;;;;;;8.75;7.25;;;;;8.52;100.00;102245.13;5046823;28;10401;-71
2022/01/29 06:41:14;;;;;;;;;6.50;6.00;;;;;8.51;100.00;102233.50;5059210;28;10374;-71
2022/01/29 06:43:41;;;;;;;;;7.00;6.75;;;;;8.52;100.00;102234.34;5058652;28;10246;-72
2022/01/29 06:46:07;;;;;;;;;8.50;7.50;;;;;8.51;100.00;102222.69;5058669;28;10360;-70
2022/01/29 06:48:34;;;;;;;;;9.50;8.00;;;;;8.48;100.00;102219.44;5058742;28;10229;-71
2022/01/29 06:51:00;;;;;;;;;10.00;9.00;;;;;8.50;100.00;102221.00;5056033;28;10343;-72
2022/01/29 06:53:27;;;;;;;;;6.50;6.50;;;;;8.50;100.00;102234.50;5058811;28;10379;-71
2022/01/29 06:55:53;;;;;;;;;5.50;5.50;;;;;8.52;100.00;102226.25;5041657;28;10463;-71
2022/01/29 06:58:20;;;;;;;;;13.00;8.00;;;;;8.51;100.00;102230.78;5059266;28;10487;-72
2022/01/29 07:01:06;;;;;;;;;6.75;6.75;;;;;8.54;100.00;102221.56;5058131;28;10448;-70
2022/01/29 07:03:33;;;;;;;;;9.25;7.50;;;;;8.54;100.00;102218.84;5057940;28;10386;-72
2022/01/29 07:05:59;;;;;;;;;6.25;6.25;;;;;8.55;100.00;102213.31;5057840;28;10405;-70
2022/01/29 07:08:26;;;;;;;;;6.50;6.00;;;;;8.56;100.00;102208.75;5057072;28;10371;-70
2022/01/29 07:10:53;;;;;;;;;8.25;5.00;;;;;8.57;100.00;102208.63;5041728;28;10248;-73
2022/01/29 07:13:21;;;;;;;;;8.50;7.00;;;;;8.60;100.00;102197.53;5047198;28;10148;-70
2022/01/29 07:15:47;;;;;;;;;7.75;7.00;;;;;8.61;100.00;102195.69;5029008;28;10238;-71
2022/01/29 07:18:13;;;;;;;;;2.50;2.50;;;;;8.62;100.00;102203.66;5058681;28;10520;-71
2022/01/29 07:20:40;;;;;;;;;8.50;5.00;;;;;8.64;100.00;102206.19;5057732;28;10298;-72
2022/01/29 07:23:07;;;;;;;;;8.00;8.00;;;;;8.66;100.00;102198.81;5058430;28;10386;-70
2022/01/29 07:25:34;;;;;;;;;11.25;6.00;;;;;8.69;100.00;102203.94;5046405;28;10351;-73
2022/01/29 07:28:01;;;;;;;;;5.00;5.00;;;;;8.69;100.00;102216.59;5056893;28;11101;-70
2022/01/29 07:30:27;;;;;;;;;9.25;6.50;;;;;8.69;100.00;102203.09;5023073;28;10163;-71
2022/01/29 07:32:54;;;;;;;;;6.00;6.00;;;;;8.70;100.00;102211.06;5057556;28;10953;-70
2022/01/29 07:35:21;;;;;;;;;4.50;4.50;;;;;8.70;100.00;102200.25;5047646;28;10310;-71
2022/01/29 07:37:51;;;;;;;;;6.00;4.00;;;;;8.69;100.00;102198.53;5057248;28;10283;-71
2022/01/29 07:40:18;;;;;;;;;8.25;5.25;;;;;8.69;100.00;102195.00;5046779;28;10052;-71
2022/01/29 07:42:44;;;;;;;;;8.00;6.25;;;;;8.71;100.00;102193.84;5057116;28;10181;-72
2022/01/29 07:45:11;;;;;;;;;8.00;5.00;;;;;8.69;100.00;102201.25;5057076;28;10397;-69
2022/01/29 07:47:37;;;;;;;;;3.00;3.00;;;;;8.70;100.00;102194.00;5039345;28;10298;-70
2022/01/29 07:50:04;;;;;;;;;6.00;4.50;;;;;8.69;100.00;102187.75;5058545;28;10100;-72
2022/01/29 07:52:32;;;;;;;;;6.25;5.00;;;;;8.71;100.00;102188.44;5055628;28;10192;-72
2022/01/29 07:55:04;;;;;;;;;3.00;3.00;;;;;8.73;100.00;102188.31;5059378;28;10327;-72
2022/01/29 07:57:30;;;;;;;;;3.75;3.25;;;;;8.75;100.00;102179.06;5059267;28;10309;-72
2022/01/29 07:59:56;;;;;;;;;4.00;4.00;;;;;8.78;100.00;102176.06;5058902;28;10172;-73
2022/01/29 08:02:23;;;;;;;;;1.75;1.75;;;;;8.80;100.00;102168.69;5060970;28;10814;-72
2022/01/29 08:04:50;;;;;;;;;5.50;3.75;;;;;8.84;100.00;102169.22;5059138;28;10081;-72
2022/01/29 08:07:16;;;;;;;;;1.50;1.50;;;;;8.86;100.00;102168.09;5058590;28;10238;-72
2022/01/29 08:09:43;;;;;;;;;3.50;3.50;;;;;8.90;100.00;102165.94;5058534;28;10346;-72
2022/01/29 08:12:10;;;;;;;;;1.25;1.25;;;;;8.92;100.00;102162.13;5058093;28;10244;-72
2022/01/29 08:14:36;;;;;;;;;4.00;4.00;;;;;8.95;100.00;102160.97;5059546;28;9986;-72
2022/01/29 08:17:03;;;;;;;;;2.00;2.00;;;;;8.96;100.00;102154.59;5045766;28;10187;-71
2022/01/29 08:19:30;;;;;;;;;2.50;2.00;;;;;9.01;100.00;102151.44;5029703;28;10012;-72
2022/01/29 08:21:56;;;;;;;;;1.00;1.00;;;;;9.04;100.00;102153.84;5060649;28;10070;-71
2022/01/29 08:24:22;;;;;;;;;3.00;3.00;;;;;9.07;100.00;102154.41;5058021;28;10144;-71
2022/01/29 08:26:49;;;;;;;;;3.00;3.00;;;;;9.08;100.00;102153.41;5058955;28;10205;-71
2022/01/29 08:29:15;;;;;;;;;1.75;1.75;;;;;9.09;100.00;102149.69;5056031;28;9858;-72
2022/01/29 08:31:46;;;;;;;;;4.00;4.00;;;;;9.12;100.00;102146.69;5060890;28;10825;-72
2022/01/29 08:34:13;;;;;;;;;3.50;2.00;;;;;9.13;100.00;102152.94;5060235;28;10050;-73
2022/01/29 08:36:40;;;;;;;;;1.25;1.00;;;;;9.15;100.00;102151.78;5045189;28;10082;-72
2022/01/29 08:39:07;;;;;;;;;2.00;1.25;;;;;9.18;100.00;102145.28;5051653;28;10076;-70
2022/01/29 08:41:34;;;;;;;;;6.25;3.00;;;;;9.19;99.76;102133.47;5049713;28;9989;-72
2022/01/29 08:44:00;;;;;;;;;0.25;0.25;;;;;9.21;99.55;102139.56;5059479;28;10680;-71
2022/01/29 08:46:27;;;;;;;;;2.50;2.50;;;;;9.21;99.40;102134.16;5059219;28;9981;-71
2022/01/29 08:48:54;;;;;;;;;2.50;2.50;;;;;9.22;99.33;102134.00;5060483;28;10192;-70
2022/01/29 08:51:20;;;;;;;;;1.00;0.75;;;;;9.23;99.30;102129.47;5059434;28;10004;-71
2022/01/29 08:53:47;;;;;;;;;3.00;2.50;;;;;9.26;99.22;102137.28;5048216;28;9973;-71
2022/01/29 08:56:15;;;;;;;;;3.75;1.75;;;;;9.25;99.06;102128.31;5059275;28;10138;-74
2022/01/29 08:58:43;;;;;;;;;6.00;2.00;;;;;9.33;98.78;102108.63;5060408;28;10040;-71
2022/01/29 09:01:11;;;;;;;;;1.50;1.50;;;;;9.33;98.39;102116.75;5058074;28;9915;-71
2022/01/29 09:03:38;;;;;;;;;2.25;1.50;;;;;9.33;98.32;102115.91;5059059;28;10078;-71
2022/01/29 09:06:05;;;;;;;;;1.00;1.00;;;;;9.34;98.48;102113.03;5044837;28;9982;-71
2022/01/29 09:08:31;;;;;;;;;8.50;2.00;;;;;9.37;98.14;102117.28;5059824;28;9888;-71
2022/01/29 09:10:58;;;;;;;;;2.00;0.50;;;;;9.36;97.99;102112.88;5043759;28;10067;-71
2022/01/29 09:13:26;;;;;;;;;1.50;0.75;;;;;9.37;97.88;102117.28;5058295;28;10006;-71
2022/01/29 09:15:54;;;;;;;;;2.00;2.00;;;;;9.34;97.51;102104.09;5046162;28;10289;-71
2022/01/29 09:18:20;;;;;;;;;0.25;0.25;;;;;9.32;97.51;102103.38;5059655;28;10095;-71
2022/01/29 09:20:48;;;;;;;;;1.50;1.00;;;;;9.31;97.95;102099.84;5042124;28;9909;-71
2022/01/29 09:23:15;;;;;;;;;3.00;1.50;;;;;9.39;97.73;102105.31;5041380;28;9902;-74
2022/01/29 09:25:43;;;;;;;;;5.00;2.00;;;;;9.38;97.30;102105.47;5045522;28;10856;-71
2022/01/29 09:28:11;;;;;;;;;8.00;4.00;;;;;9.39;96.77;102105.31;5060952;28;10021;-71
2022/01/29 09:30:38;;;;;;;;;2.75;1.00;;;;;9.37;96.71;102098.38;5057727;28;10020;-71
2022/01/29 09:33:05;;;;;;;;;0.75;0.00;;;;;9.40;96.72;102093.50;5056338;28;10626;-71
2022/01/29 09:35:32;;;;;;;;;3.50;2.50;;;;;9.41;96.48;102097.91;5058286;28;9987;-71
2022/01/29 09:37:58;;;;;;;;;2.00;2.00;;;;;9.45;96.02;102099.34;5061075;28;9920;-72
2022/01/29 09:40:25;;;;;;;;;3.00;1.75;;;;;9.45;95.76;102093.09;5008210;28;1012044;-70
2022/01/29 09:42:52;;;;;;;;;4.00;1.50;;;;;9.43;95.95;102085.13;5045350;28;8822;-70
2022/01/29 09:45:21;;;;;;;;;1.00;1.00;;;;;9.45;95.79;102075.03;5047066;28;9913;-72
2022/01/29 09:47:48;;;;;;;;;2.75;2.00;;;;;9.48;95.46;102058.50;5059865;28;9920;-71
2022/01/29 09:50:19;;;;;;;;;2.75;1.50;;;;;9.57;95.20;102056.72;5060089;28;9991;-71
2022/01/29 09:52:46;;;;;;;;;1.75;1.75;;;;;9.86;93.79;102049.22;5060153;28;9729;-71
2022/01/29 09:55:12;;;;;;;;;2.25;2.25;;;;;10.06;92.54;102046.38;5042515;28;9869;-71
2022/01/29 09:57:39;;;;;;;;;1.50;1.50;;;;;10.09;91.35;102035.22;5044331;28;9839;-71
2022/01/29 10:00:07;;;;;;;;;2.00;2.00;;;;;10.24;91.17;102039.13;5060178;28;10618;-71
2022/01/29 10:02:39;;;;;;;;;3.00;1.50;;;;;10.36;90.65;102050.53;5043709;28;9803;-72
2022/01/29 10:05:08;;;;;;;;;1.75;0.50;;;;;10.29;89.89;102044.06;5028642;28;9766;-71
2022/01/29 10:07:35;;;;;;;;;2.00;1.00;;;;;10.38;90.29;102053.94;5060878;28;9724;-72
2022/01/29 10:10:17;;;;;;;;;1.00;1.00;;;;;10.34;90.04;102047.13;5059816;28;9875;-72
2022/01/29 10:12:44;;;;;;;;;0.00;0.00;;;;;10.46;90.22;102035.06;5045806;28;9763;-72
2022/01/29 10:15:10;;;;;;;;;2.00;2.00;;;;;10.50;89.24;102039.13;5062840;28;10533;-72
2022/01/29 10:17:47;;;;;;;;;2.00;2.00;;;;;10.54;88.47;102045.94;5060023;28;9635;-70
2022/01/29 10:20:26;;;;;;;;;0.00;0.00;;;;;10.73;88.09;102034.03;5060620;28;9706;-72
2022/01/29 10:22:54;;;;;;;;;1.00;0.00;;;;;10.87;87.26;102054.25;5060446;28;9614;-72
2022/01/29 10:25:22;;;;;;;;;4.00;1.50;;;;;11.02;86.58;102037.22;5058070;28;9601;-72
2022/01/29 10:28:12;;;;;;;;;1.75;0.75;;;;;11.10;85.88;102039.97;5059176;28;9461;-72
2022/01/29 10:30:47;;;;;;;;;1.00;1.00;;;;;11.18;84.90;102033.75;5061214;28;9525;-73
2022/01/29 10:33:26;;;;;;;;;4.00;1.00;;;;;11.20;84.23;102045.28;5047448;28;9692;-73
2022/01/29 10:35:56;;;;;;;;;0.00;0.00;;;;;11.03;84.49;102016.41;5045404;28;9464;-75
2022/01/29 10:38:41;;;;;;;;;2.50;1.00;;;;;11.03;84.26;102013.69;5059160;28;9598;-72
2022/01/29 10:41:18;;;;;;;;;2.00;2.00;;;;;11.08;83.68;102016.75;5060726;28;9542;-72
2022/01/29 10:44:19;;;;;;;;;0.00;0.00;;;;;10.85;84.43;102031.88;5046583;28;9522;-71
2022/01/29 10:46:47;;;;;;;;;1.00;1.00;;;;;10.72;85.27;102030.47;5060309;28;9429;-72
2022/01/29 10:49:34;;;;;;;;;0.00;0.00;;;;;10.83;85.15;102042.03;5059378;28;10375;-73
2022/01/29 10:52:06;;;;;;;;;0.00;0.00;;;;;10.70;85.54;102043.34;5058469;28;9460;-73
2022/01/29 10:54:37;;;;;;;;;2.00;1.00;;;;;10.59;85.55;102032.75;5044531;28;9460;-71
2022/01/29 10:57:06;;;;;;;;;1.00;1.00;;;;;10.50;85.44;102030.16;5060139;28;9546;-71
2022/01/29 10:59:36;;;;;;;;;2.00;1.00;;;;;10.44;85.37;102020.81;5058832;28;9707;-71
2022/01/29 11:02:06;;;;;;;;;0.75;0.75;;;;;10.45;85.12;102007.13;5037378;28;9726;-70
2022/01/29 11:04:35;;;;;;;;;0.50;0.00;;;;;10.44;85.92;102001.88;5058536;28;9584;-71
2022/01/29 11:07:06;;;;;;;;;0.00;0.00;;;;;10.43;86.48;101987.50;5060257;28;9888;-73
2022/01/29 11:09:33;;;;;;;;;1.00;1.00;;;;;10.42;86.37;101987.66;5057574;28;9790;-72
2022/01/29 11:12:04;;;;;;;;;1.00;1.00;;;;;10.53;86.38;101992.78;5057959;28;9750;-72
2022/01/29 11:14:32;;;;;;;;;2.00;0.25;;;;;10.64;85.61;101983.53;5043342;28;9739;-72
2022/01/29 11:17:00;;;;;;;;;2.00;0.75;;;;;10.72;85.47;101987.13;5056500;28;9782;-73
2022/01/29 11:19:26;;;;;;;;;0.75;0.75;;;;;10.83;85.48;101986.00;5059233;28;9737;-71
2022/01/29 11:21:56;;;;;;;;;1.00;0.00;;;;;10.82;85.03;101976.16;5059336;28;9542;-71
2022/01/29 11:24:25;;;;;;;;;2.00;1.00;;;;;10.76;84.60;101969.53;5058670;28;9609;-71
2022/01/29 11:26:51;;;;;;;;;1.00;1.00;;;;;10.76;84.58;101956.00;5053299;28;9785;-71
2022/01/29 11:29:25;;;;;;;;;0.50;0.50;;;;;10.87;84.43;101978.38;5047480;28;9731;-71
2022/01/29 11:32:20;;;;;;;;;0.00;0.00;;;;;10.73;84.49;101975.28;5044402;28;9693;-73
2022/01/29 11:35:07;;;;;;;;;1.50;0.25;;;;;10.76;84.94;101966.00;5059460;28;9673;-73
2022/01/29 11:37:39;;;;;;;;;0.75;0.25;;;;;10.84;84.60;101976.00;5056734;28;9545;-73
2022/01/29 11:40:18;;;;;;;;;0.00;0.00;;;;;10.70;84.61;101959.38;5059342;28;9454;-72
2022/01/29 11:43:18;;;;;;;;;0.50;0.50;;;;;10.78;84.83;101955.84;5058885;28;9614;-72